Time;durP1;ratioP1;P1;durP2;ratioP2;P2;SDS_P1;SDS_P2;PMS_P1;PMS_P2;Temp;Humidity;BMP_temperature;BMP_pressure;BME280_temperature;BME280_humidity;BME280_pressure;Samples;Min_cycle;Max_cycle;Signal;HPM_P1;HPM_P2
2023/02/26 00:02:14;;;;;;;3.78;1.88;;;;;;;;;;4990808;28;20390;-84
2023/02/26 00:04:41;;;;;;;3.38;1.80;;;;;;;;;;4991119;28;20438;-82
2023/02/26 00:07:07;;;;;;;4.90;2.00;;;;;;;;;;4989915;28;20390;-82
2023/02/26 00:09:33;;;;;;;2.70;1.95;;;;;;;;;;4995257;28;20445;-82
2023/02/26 00:11:59;;;;;;;4.40;2.10;;;;;;;;;;4993200;28;20862;-81
2023/02/26 00:14:26;;;;;;;3.00;1.83;;;;;;;;;;4993327;28;20382;-82
2023/02/26 00:17:04;;;;;;;2.67;2.00;;;;;;;;;;4992699;28;20457;-84
2023/02/26 00:19:30;;;;;;;3.70;1.73;;;;;;;;;;4976673;28;20809;-81
2023/02/26 00:21:56;;;;;;;3.47;2.22;;;;;;;;;;5011456;28;20547;-82
2023/02/26 00:24:22;;;;;;;2.67;2.30;;;;;;;;;;5011212;28;20388;-84
2023/02/26 00:26:48;;;;;;;3.70;1.95;;;;;;;;;;5011267;28;20399;-83
2023/02/26 00:29:14;;;;;;;2.17;1.67;;;;;;;;;;5011266;28;20403;-83
2023/02/26 00:31:40;;;;;;;3.97;1.95;;;;;;;;;;4993632;28;20389;-82
2023/02/26 00:34:10;;;;;;;2.47;2.00;;;;;;;;;;5010788;28;20388;-82
2023/02/26 00:36:39;;;;;;;2.83;1.70;;;;;;;;;;5011178;28;20405;-83
2023/02/26 00:39:05;;;;;;;3.92;1.88;;;;;;;;;;5011273;28;20821;-82
2023/02/26 00:41:32;;;;;;;3.50;1.92;;;;;;;;;;5011153;28;20480;-83
2023/02/26 00:43:58;;;;;;;3.08;1.63;;;;;;;;;;5011230;28;20389;-83
2023/02/26 00:46:42;;;;;;;2.67;1.67;;;;;;;;;;5014872;28;20790;-82
2023/02/26 00:49:08;;;;;;;2.55;1.92;;;;;;;;;;5014613;28;20446;-83
2023/02/26 00:52:00;;;;;;;2.58;1.88;;;;;;;;;;5014694;28;20443;-83
2023/02/26 00:54:28;;;;;;;3.30;1.80;;;;;;;;;;5000520;28;20459;-82
2023/02/26 00:56:54;;;;;;;2.85;1.50;;;;;;;;;;5014725;28;20442;-82
2023/02/26 00:59:21;;;;;;;3.17;2.00;;;;;;;;;;5014404;28;20861;-82
2023/02/26 01:01:47;;;;;;;2.72;2.00;;;;;;;;;;5014615;28;20464;-83
2023/02/26 01:04:15;;;;;;;2.42;1.85;;;;;;;;;;5014469;28;20443;-83
2023/02/26 01:06:45;;;;;;;2.38;1.58;;;;;;;;;;5014574;28;20426;-83
2023/02/26 01:09:14;;;;;;;2.63;1.35;;;;;;;;;;4996688;28;20439;-83
2023/02/26 01:11:41;;;;;;;2.00;1.50;;;;;;;;;;5014345;28;20433;-82
2023/02/26 01:14:07;;;;;;;2.67;1.80;;;;;;;;;;5014250;28;20393;-85
2023/02/26 01:16:37;;;;;;;2.05;1.45;;;;;;;;;;5014255;28;20424;-83
2023/02/26 01:19:03;;;;;;;1.95;1.67;;;;;;;;;;4997071;28;20487;-82
2023/02/26 01:21:36;;;;;;;2.03;1.60;;;;;;;;;;5014144;28;20982;-84
2023/02/26 01:24:03;;;;;;;2.85;1.65;;;;;;;;;;5013854;28;20444;-82
2023/02/26 01:26:29;;;;;;;3.45;1.80;;;;;;;;;;5014015;28;20385;-83
2023/02/26 01:28:55;;;;;;;3.53;1.65;;;;;;;;;;5014127;28;20384;-83
2023/02/26 01:31:27;;;;;;;2.25;1.60;;;;;;;;;;5006384;28;20408;-83
2023/02/26 01:33:55;;;;;;;3.25;1.67;;;;;;;;;;5013373;28;20475;-82
2023/02/26 01:36:27;;;;;;;2.13;1.50;;;;;;;;;;5009144;28;20439;-82
2023/02/26 01:39:00;;;;;;;2.40;2.07;;;;;;;;;;5007016;28;20509;-82
2023/02/26 01:41:29;;;;;;;2.58;1.65;;;;;;;;;;5013983;28;20412;-82
2023/02/26 01:44:10;;;;;;;2.93;1.60;;;;;;;;;;5013604;28;20389;-82
2023/02/26 01:47:11;;;;;;;2.63;2.22;;;;;;;;;;5008118;28;20555;-82
2023/02/26 01:49:38;;;;;;;2.75;1.33;;;;;;;;;;4914824;29;20478;-82
2023/02/26 01:52:05;;;;;;;3.73;2.07;;;;;;;;;;4979867;28;20415;-82
2023/02/26 01:54:33;;;;;;;2.63;1.90;;;;;;;;;;5010980;28;20423;-82
2023/02/26 01:57:03;;;;;;;2.13;1.42;;;;;;;;;;5007844;28;20401;-82
2023/02/26 01:59:30;;;;;;;2.80;2.08;;;;;;;;;;5013259;28;20429;-82
2023/02/26 02:01:57;;;;;;;2.72;1.90;;;;;;;;;;5000827;28;20387;-82
2023/02/26 02:04:24;;;;;;;2.50;1.77;;;;;;;;;;5013352;28;20399;-82
2023/02/26 02:06:50;;;;;;;3.58;2.72;;;;;;;;;;5013318;28;20389;-82
2023/02/26 02:09:16;;;;;;;3.25;2.38;;;;;;;;;;5013167;28;20449;-82
2023/02/26 02:11:59;;;;;;;2.35;1.63;;;;;;;;;;4989415;28;20398;-82
2023/02/26 02:14:25;;;;;;;2.45;1.73;;;;;;;;;;5008455;28;20471;-82
2023/02/26 02:16:57;;;;;;;2.67;1.70;;;;;;;;;;4995317;28;20416;-82
2023/02/26 02:19:39;;;;;;;2.38;1.70;;;;;;;;;;4995705;28;20395;-82
2023/02/26 02:22:23;;;;;;;2.33;1.67;;;;;;;;;;5013027;28;20457;-82
2023/02/26 02:24:57;;;;;;;2.45;1.45;;;;;;;;;;4999992;28;20409;-82
2023/02/26 02:27:44;;;;;;;1.80;1.43;;;;;;;;;;4999631;28;20409;-82
2023/02/26 02:30:10;;;;;;;2.85;1.50;;;;;;;;;;4994842;28;20936;-82
2023/02/26 02:32:57;;;;;;;1.80;1.57;;;;;;;;;;5012736;28;20962;-82
2023/02/26 02:35:38;;;;;;;2.00;1.52;;;;;;;;;;5012529;28;20553;-82
2023/02/26 02:38:07;;;;;;;2.30;1.70;;;;;;;;;;5008570;28;20477;-82
2023/02/26 02:40:39;;;;;;;1.85;1.55;;;;;;;;;;5003998;28;20414;-82
2023/02/26 02:43:10;;;;;;;2.33;1.65;;;;;;;;;;5001576;28;20451;-82
2023/02/26 02:45:36;;;;;;;2.42;1.42;;;;;;;;;;5011866;28;20900;-82
2023/02/26 02:48:05;;;;;;;2.45;1.80;;;;;;;;;;5014122;28;20420;-82
2023/02/26 02:50:43;;;;;;;3.00;1.85;;;;;;;;;;5020328;28;20430;-83
2023/02/26 02:53:15;;;;;;;1.30;1.00;;;;;;;;;;5018825;28;20427;-83
2023/02/26 02:55:48;;;;;;;2.67;1.13;;;;;;;;;;5026224;28;20376;-81
2023/02/26 02:58:16;;;;;;;9.00;5.90;;;;;;;;;;5030231;28;20400;-81
2023/02/26 03:00:48;;;;;;;8.68;5.00;;;;;;;;;;5020885;28;20483;-82
2023/02/26 03:03:14;;;;;;;1.52;1.10;;;;;;;;;;5014976;28;20528;-83
2023/02/26 03:05:40;;;;;;;4.05;2.28;;;;;;;;;;5014718;28;20471;-83
2023/02/26 03:08:08;;;;;;;9.77;5.47;;;;;;;;;;5011774;28;20416;-83
2023/02/26 03:10:34;;;;;;;4.07;2.80;;;;;;;;;;4994726;28;20888;-83
2023/02/26 03:13:00;;;;;;;1.87;1.30;;;;;;;;;;5012424;28;20395;-82
2023/02/26 03:15:46;;;;;;;4.53;3.33;;;;;;;;;;5011980;28;20376;-83
2023/02/26 03:18:21;;;;;;;2.42;1.92;;;;;;;;;;5011266;28;20457;-83
2023/02/26 03:20:58;;;;;;;3.85;2.83;;;;;;;;;;5011910;28;20385;-83
2023/02/26 03:23:28;;;;;;;1.80;1.23;;;;;;;;;;4990815;28;20871;-83
2023/02/26 03:25:57;;;;;;;1.60;1.08;;;;;;;;;;5002891;28;20392;-83
2023/02/26 03:28:29;;;;;;;1.95;1.25;;;;;;;;;;5011904;28;20454;-83
2023/02/26 03:30:58;;;;;;;2.40;1.30;;;;;;;;;;5011797;28;20453;-83
2023/02/26 03:33:28;;;;;;;1.90;1.10;;;;;;;;;;4994404;28;20932;-81
2023/02/26 03:35:54;;;;;;;1.90;1.13;;;;;;;;;;5011042;28;20843;-82
2023/02/26 03:38:44;;;;;;;10.47;5.77;;;;;;;;;;5009723;28;20388;-81
2023/02/26 03:41:15;;;;;;;3.45;2.10;;;;;;;;;;5011673;28;20389;-81
2023/02/26 03:43:44;;;;;;;1.63;1.30;;;;;;;;;;5011746;28;20436;-81
2023/02/26 03:46:13;;;;;;;1.67;1.20;;;;;;;;;;5011730;28;20430;-81
2023/02/26 03:48:39;;;;;;;1.63;1.23;;;;;;;;;;5011557;28;20459;-82
2023/02/26 03:51:09;;;;;;;2.80;1.50;;;;;;;;;;5003059;28;20884;-81
2023/02/26 03:53:42;;;;;;;2.58;1.45;;;;;;;;;;5011886;28;20437;-81
2023/02/26 03:56:17;;;;;;;1.67;1.33;;;;;;;;;;5011514;28;20750;-81
2023/02/26 03:58:43;;;;;;;4.18;1.83;;;;;;;;;;5011538;28;20440;-81
2023/02/26 04:01:13;;;;;;;2.25;1.30;;;;;;;;;;5011543;28;20395;-81
2023/02/26 04:03:48;;;;;;;2.30;1.40;;;;;;;;;;5011505;28;20925;-81
2023/02/26 04:06:14;;;;;;;1.75;1.20;;;;;;;;;;4995584;28;20490;-82
2023/02/26 04:08:43;;;;;;;4.53;3.40;;;;;;;;;;4993223;28;20393;-82
2023/02/26 04:11:11;;;;;;;1.73;1.47;;;;;;;;;;4993291;28;20565;-82
2023/02/26 04:13:37;;;;;;;1.50;1.00;;;;;;;;;;4994865;28;20514;-82
2023/02/26 04:16:03;;;;;;;3.85;1.67;;;;;;;;;;4973978;28;20405;-82
2023/02/26 04:18:29;;;;;;;2.10;1.55;;;;;;;;;;4992219;28;20437;-82
2023/02/26 04:20:55;;;;;;;3.80;2.50;;;;;;;;;;4995375;28;20751;-81
2023/02/26 04:23:21;;;;;;;4.40;2.97;;;;;;;;;;4995698;28;20392;-82
2023/02/26 04:25:50;;;;;;;6.75;4.35;;;;;;;;;;4994795;28;20409;-83
2023/02/26 04:28:16;;;;;;;2.70;1.80;;;;;;;;;;4979090;28;20490;-82
2023/02/26 04:30:44;;;;;;;1.83;1.20;;;;;;;;;;5001031;28;20455;-82
2023/02/26 04:33:10;;;;;;;2.13;1.27;;;;;;;;;;5013153;28;20439;-82
2023/02/26 04:35:36;;;;;;;3.25;1.58;;;;;;;;;;5014403;28;20812;-82
2023/02/26 04:38:02;;;;;;;7.88;5.45;;;;;;;;;;5014081;28;20463;-82
2023/02/26 04:40:28;;;;;;;2.50;1.30;;;;;;;;;;5010521;28;20726;-83
2023/02/26 04:42:54;;;;;;;2.10;1.40;;;;;;;;;;4997290;28;20435;-83
2023/02/26 04:45:20;;;;;;;2.17;1.30;;;;;;;;;;5008918;28;20387;-82
2023/02/26 04:47:46;;;;;;;1.50;1.02;;;;;;;;;;5012789;28;20499;-82
2023/02/26 04:50:12;;;;;;;2.57;1.80;;;;;;;;;;4992743;28;20961;-83
2023/02/26 04:52:38;;;;;;;4.03;1.80;;;;;;;;;;4995136;28;20392;-83
2023/02/26 04:55:06;;;;;;;1.85;1.33;;;;;;;;;;5003053;28;20402;-82
2023/02/26 04:57:32;;;;;;;2.97;2.30;;;;;;;;;;4998921;28;20788;-83
2023/02/26 04:59:58;;;;;;;1.90;1.33;;;;;;;;;;4994226;28;20400;-82
2023/02/26 05:02:24;;;;;;;2.03;1.20;;;;;;;;;;4980223;28;20389;-82
2023/02/26 05:04:51;;;;;;;1.92;1.40;;;;;;;;;;5013374;28;20505;-82
2023/02/26 05:07:17;;;;;;;3.83;3.30;;;;;;;;;;5013194;28;20416;-82
2023/02/26 05:09:43;;;;;;;2.70;1.30;;;;;;;;;;5014022;28;20459;-82
2023/02/26 05:12:09;;;;;;;1.70;1.30;;;;;;;;;;5014365;28;20440;-82
2023/02/26 05:14:35;;;;;;;2.45;1.40;;;;;;;;;;5013474;28;20837;-82
2023/02/26 05:17:01;;;;;;;2.30;1.33;;;;;;;;;;5015249;28;20412;-82
2023/02/26 05:19:27;;;;;;;2.22;1.38;;;;;;;;;;5014857;28;20385;-82
2023/02/26 05:21:53;;;;;;;2.58;1.30;;;;;;;;;;4996593;28;20392;-82
2023/02/26 05:24:19;;;;;;;2.45;1.58;;;;;;;;;;5014077;28;20464;-82
2023/02/26 05:26:45;;;;;;;1.80;1.17;;;;;;;;;;5013917;28;20413;-82
2023/02/26 05:29:11;;;;;;;2.85;1.25;;;;;;;;;;5014024;28;20881;-82
2023/02/26 05:31:37;;;;;;;2.33;1.63;;;;;;;;;;5012991;28;20435;-82
2023/02/26 05:34:03;;;;;;;2.60;1.20;;;;;;;;;;4996324;28;20475;-82
2023/02/26 05:36:29;;;;;;;3.42;2.13;;;;;;;;;;5013978;28;20781;-82
2023/02/26 05:38:55;;;;;;;2.53;1.53;;;;;;;;;;5009740;28;20475;-82
2023/02/26 05:41:21;;;;;;;3.63;2.83;;;;;;;;;;4988086;28;20389;-81
2023/02/26 05:43:47;;;;;;;1.88;1.20;;;;;;;;;;5013652;28;20420;-82
2023/02/26 05:46:13;;;;;;;2.53;1.90;;;;;;;;;;5013677;28;20481;-82
2023/02/26 05:48:39;;;;;;;3.05;2.40;;;;;;;;;;5013540;28;20412;-82
2023/02/26 05:51:05;;;;;;;2.00;1.40;;;;;;;;;;5004940;28;20385;-81
2023/02/26 05:53:31;;;;;;;3.38;1.90;;;;;;;;;;5013473;28;20464;-81
2023/02/26 05:55:57;;;;;;;2.97;1.55;;;;;;;;;;5013355;28;20397;-81
2023/02/26 05:58:23;;;;;;;3.22;2.47;;;;;;;;;;5013489;28;20411;-81
2023/02/26 06:00:49;;;;;;;2.95;2.03;;;;;;;;;;5013249;28;20917;-81
2023/02/26 06:03:15;;;;;;;2.35;1.40;;;;;;;;;;5013287;28;20412;-82
2023/02/26 06:05:41;;;;;;;2.25;1.40;;;;;;;;;;5012982;28;20388;-82
2023/02/26 06:08:07;;;;;;;2.63;1.63;;;;;;;;;;5000701;28;21127;-81
2023/02/26 06:10:33;;;;;;;2.92;1.45;;;;;;;;;;5013174;28;20385;-82
2023/02/26 06:12:59;;;;;;;2.65;1.50;;;;;;;;;;5013061;28;20379;-82
2023/02/26 06:15:25;;;;;;;2.10;1.67;;;;;;;;;;5013158;28;20405;-82
2023/02/26 06:17:51;;;;;;;2.20;1.60;;;;;;;;;;5013200;28;20853;-82
2023/02/26 06:20:17;;;;;;;92.47;33.70;;;;;;;;;;5013221;28;20461;-82
2023/02/26 06:22:43;;;;;;;22.92;10.85;;;;;;;;;;5013388;28;20743;-82
2023/02/26 06:25:09;;;;;;;4.10;2.83;;;;;;;;;;5020640;28;20396;-82
2023/02/26 06:27:35;;;;;;;6.10;5.50;;;;;;;;;;4999464;28;20419;-82
2023/02/26 06:30:02;;;;;;;2.40;1.60;;;;;;;;;;5022096;28;20396;-79
2023/02/26 06:32:28;;;;;;;2.38;2.15;;;;;;;;;;5024468;28;20451;-81
2023/02/26 06:34:54;;;;;;;2.92;2.28;;;;;;;;;;5025598;28;20432;-81
2023/02/26 06:37:19;;;;;;;3.00;1.90;;;;;;;;;;5020250;28;20520;-82
2023/02/26 06:39:45;;;;;;;2.63;2.42;;;;;;;;;;5016714;28;20385;-82
2023/02/26 06:42:12;;;;;;;3.95;2.28;;;;;;;;;;5010062;28;20418;-82
2023/02/26 06:44:38;;;;;;;3.13;2.22;;;;;;;;;;5012252;28;20877;-82
2023/02/26 06:47:04;;;;;;;2.90;1.92;;;;;;;;;;5006868;28;20421;-83
2023/02/26 06:49:30;;;;;;;2.53;2.33;;;;;;;;;;5007550;28;20386;-82
2023/02/26 06:51:56;;;;;;;5.75;4.97;;;;;;;;;;5008143;28;20381;-82
2023/02/26 06:54:22;;;;;;;8.35;7.53;;;;;;;;;;4994494;28;20742;-82
2023/02/26 06:56:48;;;;;;;3.55;2.88;;;;;;;;;;5012432;28;20396;-82
2023/02/26 06:59:14;;;;;;;2.42;1.80;;;;;;;;;;5012341;28;20483;-82
2023/02/26 07:01:43;;;;;;;3.42;1.80;;;;;;;;;;5008190;28;20392;-83
2023/02/26 07:04:09;;;;;;;2.53;1.85;;;;;;;;;;5000255;28;20414;-82
2023/02/26 07:06:35;;;;;;;2.95;1.60;;;;;;;;;;4994288;28;20484;-81
2023/02/26 07:09:01;;;;;;;2.70;1.38;;;;;;;;;;5011426;28;20389;-81
2023/02/26 07:11:27;;;;;;;2.07;1.37;;;;;;;;;;5011659;28;20858;-81
2023/02/26 07:13:53;;;;;;;2.38;1.40;;;;;;;;;;5011899;28;20392;-80
2023/02/26 07:16:22;;;;;;;2.55;1.10;;;;;;;;;;5012017;28;20942;-81
2023/02/26 07:18:48;;;;;;;2.15;1.20;;;;;;;;;;5012284;28;20393;-84
2023/02/26 07:21:14;;;;;;;3.75;1.45;;;;;;;;;;4994220;28;20396;-80
2023/02/26 07:23:40;;;;;;;2.80;1.05;;;;;;;;;;5011972;28;20388;-80
2023/02/26 07:26:07;;;;;;;1.83;1.20;;;;;;;;;;5011901;28;20377;-80
2023/02/26 07:28:33;;;;;;;2.80;1.08;;;;;;;;;;5011811;28;20885;-78
2023/02/26 07:30:59;;;;;;;2.88;1.02;;;;;;;;;;5010313;28;20431;-77
2023/02/26 07:33:27;;;;;;;1.30;0.70;;;;;;;;;;5009581;28;20423;-77
2023/02/26 07:35:53;;;;;;;1.40;0.77;;;;;;;;;;5011757;28;20385;-76
2023/02/26 07:38:20;;;;;;;1.48;0.80;;;;;;;;;;5005392;28;20402;-77
2023/02/26 07:40:46;;;;;;;1.70;0.90;;;;;;;;;;4974580;28;20409;-77
2023/02/26 07:43:12;;;;;;;1.27;0.90;;;;;;;;;;5004305;28;20384;-82
2023/02/26 07:45:38;;;;;;;2.10;0.80;;;;;;;;;;5011584;28;20423;-84
2023/02/26 07:48:04;;;;;;;2.33;0.90;;;;;;;;;;5011570;28;20476;-83
2023/02/26 07:50:30;;;;;;;2.70;0.82;;;;;;;;;;4998309;28;20444;-79
2023/02/26 07:52:56;;;;;;;1.52;1.00;;;;;;;;;;4999706;28;20473;-79
2023/02/26 07:55:22;;;;;;;3.40;1.00;;;;;;;;;;5006452;28;20378;-79
2023/02/26 07:57:49;;;;;;;2.03;0.90;;;;;;;;;;5010767;28;20385;-78
2023/02/26 08:00:15;;;;;;;3.13;0.93;;;;;;;;;;5009999;28;20409;-79
2023/02/26 08:02:41;;;;;;;1.55;0.80;;;;;;;;;;4991822;28;20402;-78
2023/02/26 08:05:07;;;;;;;2.67;1.00;;;;;;;;;;5011702;28;21202;-79
2023/02/26 08:07:33;;;;;;;1.55;0.95;;;;;;;;;;5001768;28;20894;-81
2023/02/26 08:09:59;;;;;;;2.00;0.90;;;;;;;;;;4999599;28;20413;-81
2023/02/26 08:12:25;;;;;;;2.00;1.15;;;;;;;;;;5007917;28;20446;-81
2023/02/26 08:14:51;;;;;;;1.02;0.90;;;;;;;;;;5006228;28;20492;-84
2023/02/26 08:17:17;;;;;;;1.65;0.90;;;;;;;;;;5008301;28;20381;-79
2023/02/26 08:19:43;;;;;;;2.28;0.90;;;;;;;;;;5017362;28;20395;-79
2023/02/26 08:22:09;;;;;;;2.17;1.08;;;;;;;;;;5012960;28;20385;-80
2023/02/26 08:24:35;;;;;;;1.75;0.93;;;;;;;;;;4984280;28;20474;-79
2023/02/26 08:27:01;;;;;;;1.98;0.90;;;;;;;;;;4998545;28;20427;-80
2023/02/26 08:29:27;;;;;;;3.38;1.10;;;;;;;;;;5001868;28;20393;-79
2023/02/26 08:31:53;;;;;;;2.08;0.82;;;;;;;;;;5015345;28;20381;-79
2023/02/26 08:34:19;;;;;;;1.75;0.82;;;;;;;;;;5015278;28;20388;-79
2023/02/26 08:36:45;;;;;;;1.15;0.90;;;;;;;;;;5003027;28;20386;-80
2023/02/26 08:39:11;;;;;;;1.30;0.82;;;;;;;;;;5017667;28;20377;-78
2023/02/26 08:41:37;;;;;;;1.70;0.85;;;;;;;;;;5017175;28;20957;-78
2023/02/26 08:44:03;;;;;;;1.50;0.93;;;;;;;;;;5008609;28;20401;-80
2023/02/26 08:46:29;;;;;;;1.50;1.10;;;;;;;;;;5017376;28;20391;-79
2023/02/26 08:48:55;;;;;;;2.20;0.80;;;;;;;;;;4991076;28;20379;-79
2023/02/26 08:51:21;;;;;;;2.53;1.00;;;;;;;;;;4996756;28;20455;-80
2023/02/26 08:53:49;;;;;;;1.65;0.88;;;;;;;;;;5017489;28;21234;-79
2023/02/26 08:56:15;;;;;;;1.83;0.80;;;;;;;;;;5017633;28;20388;-79
2023/02/26 08:58:41;;;;;;;1.83;1.00;;;;;;;;;;5017502;28;20472;-81
2023/02/26 09:01:07;;;;;;;2.60;0.90;;;;;;;;;;5013662;28;20408;-79
2023/02/26 09:03:33;;;;;;;1.70;0.90;;;;;;;;;;5017101;28;20896;-79
2023/02/26 09:05:59;;;;;;;1.30;0.80;;;;;;;;;;5013416;28;20468;-79
2023/02/26 09:08:25;;;;;;;1.73;0.77;;;;;;;;;;5013917;28;20466;-79
2023/02/26 09:10:51;;;;;;;0.80;0.75;;;;;;;;;;5003260;28;20381;-80
2023/02/26 09:13:17;;;;;;;1.20;0.77;;;;;;;;;;4996818;28;20408;-79
2023/02/26 09:15:43;;;;;;;1.90;0.90;;;;;;;;;;5008339;28;20421;-80
2023/02/26 09:18:14;;;;;;;0.85;0.73;;;;;;;;;;5004490;28;20862;-80
2023/02/26 09:20:41;;;;;;;1.27;0.60;;;;;;;;;;5014250;28;20383;-80
2023/02/26 09:23:07;;;;;;;1.35;0.85;;;;;;;;;;5013897;28;20395;-81
2023/02/26 09:25:33;;;;;;;0.80;0.50;;;;;;;;;;5014185;28;20389;-80
2023/02/26 09:27:59;;;;;;;1.45;0.70;;;;;;;;;;4996351;28;20413;-81
2023/02/26 09:30:25;;;;;;;1.45;0.85;;;;;;;;;;5013813;28;20495;-82
2023/02/26 09:32:51;;;;;;;2.17;0.73;;;;;;;;;;5011522;28;20479;-80
2023/02/26 09:35:17;;;;;;;1.50;0.60;;;;;;;;;;5000784;28;20793;-80
2023/02/26 09:37:43;;;;;;;0.95;0.70;;;;;;;;;;5013731;28;20391;-80
2023/02/26 09:40:12;;;;;;;1.60;0.90;;;;;;;;;;5000591;28;20393;-80
2023/02/26 09:42:48;;;;;;;1.37;0.70;;;;;;;;;;5013687;28;20385;-80
2023/02/26 09:45:24;;;;;;;2.05;0.90;;;;;;;;;;5013565;28;20388;-81
2023/02/26 09:47:51;;;;;;;1.50;0.70;;;;;;;;;;5013155;28;20439;-81
2023/02/26 09:50:23;;;;;;;1.60;0.60;;;;;;;;;;5013307;28;20986;-81
2023/02/26 09:53:04;;;;;;;1.60;0.80;;;;;;;;;;5013778;28;20442;-81
2023/02/26 09:55:43;;;;;;;1.50;0.80;;;;;;;;;;5014164;28;20435;-82
2023/02/26 09:58:22;;;;;;;2.22;0.80;;;;;;;;;;5013635;28;20432;-80
2023/02/26 10:00:54;;;;;;;1.50;0.85;;;;;;;;;;5001594;28;20901;-80
2023/02/26 10:03:30;;;;;;;1.42;1.00;;;;;;;;;;4996482;28;20877;-80
2023/02/26 10:06:16;;;;;;;1.30;1.00;;;;;;;;;;5016021;28;20477;-79
2023/02/26 10:09:01;;;;;;;1.83;1.00;;;;;;;;;;5017967;28;20400;-80
2023/02/26 10:11:33;;;;;;;1.40;0.90;;;;;;;;;;5011899;28;20433;-80
2023/02/26 10:14:04;;;;;;;1.42;1.00;;;;;;;;;;5014901;28;20387;-81
2023/02/26 10:16:33;;;;;;;1.33;0.95;;;;;;;;;;5013954;28;20438;-80
2023/02/26 10:19:05;;;;;;;1.48;0.85;;;;;;;;;;5013027;28;20387;-80
2023/02/26 10:21:45;;;;;;;2.42;1.00;;;;;;;;;;5013417;28;20404;-81
2023/02/26 10:24:41;;;;;;;1.00;0.82;;;;;;;;;;4995699;28;20408;-81
2023/02/26 10:27:12;;;;;;;1.50;1.00;;;;;;;;;;4992579;28;20447;-80
2023/02/26 10:29:59;;;;;;;1.45;1.02;;;;;;;;;;5013028;28;20392;-80
2023/02/26 10:32:46;;;;;;;2.70;1.10;;;;;;;;;;5013314;28;20380;-79
2023/02/26 10:35:14;;;;;;;1.15;1.02;;;;;;;;;;5012722;28;20373;-81
2023/02/26 10:37:48;;;;;;;1.60;0.95;;;;;;;;;;5007258;28;20407;-80
2023/02/26 10:40:24;;;;;;;1.50;1.00;;;;;;;;;;5000922;28;20509;-80
2023/02/26 10:42:50;;;;;;;1.50;0.93;;;;;;;;;;5011951;28;20426;-81
2023/02/26 10:45:34;;;;;;;1.40;1.00;;;;;;;;;;5013091;28;20531;-80
2023/02/26 10:48:07;;;;;;;1.42;0.95;;;;;;;;;;5012410;28;20470;-79
2023/02/26 10:50:33;;;;;;;1.90;0.95;;;;;;;;;;5012313;28;20471;-81
2023/02/26 10:52:59;;;;;;;2.13;1.40;;;;;;;;;;4984417;28;20387;-79
2023/02/26 10:55:34;;;;;;;1.67;1.10;;;;;;;;;;5007454;28;20392;-80
2023/02/26 10:58:04;;;;;;;1.70;1.20;;;;;;;;;;5002740;28;20434;-82
2023/02/26 11:00:30;;;;;;;1.30;1.10;;;;;;;;;;5006674;28;20385;-82
2023/02/26 11:02:56;;;;;;;1.55;0.90;;;;;;;;;;5005228;28;20398;-79
2023/02/26 11:05:24;;;;;;;1.55;0.82;;;;;;;;;;5001426;28;20413;-81
2023/02/26 11:07:53;;;;;;;0.75;0.75;;;;;;;;;;5007885;28;20431;-83
2023/02/26 11:10:24;;;;;;;1.40;1.00;;;;;;;;;;4999549;28;20745;-80
2023/02/26 11:12:51;;;;;;;1.65;0.85;;;;;;;;;;5012153;28;20471;-79
2023/02/26 11:15:18;;;;;;;2.10;0.80;;;;;;;;;;5012351;28;20393;-81
2023/02/26 11:17:47;;;;;;;1.20;0.90;;;;;;;;;;4999613;28;20851;-80
2023/02/26 11:20:15;;;;;;;0.80;0.65;;;;;;;;;;5007998;28;20449;-79
2023/02/26 11:22:44;;;;;;;2.00;0.90;;;;;;;;;;5007399;28;20385;-83
2023/02/26 11:25:16;;;;;;;1.25;0.70;;;;;;;;;;4986943;28;20404;-82
2023/02/26 11:27:44;;;;;;;0.95;0.80;;;;;;;;;;4992253;28;20459;-84
2023/02/26 11:30:20;;;;;;;1.07;0.73;;;;;;;;;;5006316;28;20411;-86
2023/02/26 11:32:50;;;;;;;0.90;0.90;;;;;;;;;;4979894;28;20943;-83
2023/02/26 11:35:17;;;;;;;1.20;0.90;;;;;;;;;;5005372;28;20403;-81
2023/02/26 11:37:47;;;;;;;1.70;0.90;;;;;;;;;;5011641;28;20415;-81
2023/02/26 11:40:15;;;;;;;2.77;0.80;;;;;;;;;;5010305;28;20396;-82
2023/02/26 11:42:49;;;;;;;3.30;0.90;;;;;;;;;;5007948;28;20389;-81
2023/02/26 11:45:17;;;;;;;1.33;0.85;;;;;;;;;;5012105;28;20377;-81
2023/02/26 11:47:43;;;;;;;1.08;0.95;;;;;;;;;;5011931;28;20454;-81
2023/02/26 11:50:19;;;;;;;1.40;1.15;;;;;;;;;;4993931;28;20912;-81
2023/02/26 11:52:46;;;;;;;2.58;1.10;;;;;;;;;;5012189;28;20380;-81
2023/02/26 11:55:20;;;;;;;1.13;0.88;;;;;;;;;;4994330;28;20435;-81
2023/02/26 11:57:52;;;;;;;1.48;0.88;;;;;;;;;;5011603;28;20905;-82
2023/02/26 12:00:20;;;;;;;0.83;0.83;;;;;;;;;;5011747;28;20403;-80
2023/02/26 12:02:46;;;;;;;0.80;0.80;;;;;;;;;;5011648;28;20404;-82
2023/02/26 12:05:15;;;;;;;1.13;0.90;;;;;;;;;;5011793;28;20923;-80
2023/02/26 12:07:41;;;;;;;1.00;0.90;;;;;;;;;;5011739;28;20938;-83
2023/02/26 12:10:15;;;;;;;1.52;0.90;;;;;;;;;;5011653;28;20484;-82
2023/02/26 12:12:50;;;;;;;1.40;0.90;;;;;;;;;;5011822;28;20459;-83
2023/02/26 12:15:21;;;;;;;1.20;0.85;;;;;;;;;;5012056;28;20384;-82
2023/02/26 12:18:14;;;;;;;2.25;0.98;;;;;;;;;;5008138;28;20438;-82
2023/02/26 12:20:43;;;;;;;1.40;1.20;;;;;;;;;;4996807;28;20489;-82
2023/02/26 12:23:28;;;;;;;1.10;1.00;;;;;;;;;;5011584;28;20423;-82
2023/02/26 12:26:12;;;;;;;1.13;1.02;;;;;;;;;;5011649;28;20407;-82
2023/02/26 12:28:57;;;;;;;1.08;0.90;;;;;;;;;;5011562;28;20424;-82
2023/02/26 12:31:29;;;;;;;1.80;1.10;;;;;;;;;;5011302;28;20497;-82
2023/02/26 12:33:58;;;;;;;2.20;0.80;;;;;;;;;;5011300;28;20454;-81
2023/02/26 12:36:45;;;;;;;0.93;0.93;;;;;;;;;;5011012;28;20423;-81
2023/02/26 12:39:17;;;;;;;1.58;1.45;;;;;;;;;;4998353;28;20466;-80
2023/02/26 12:41:52;;;;;;;2.88;1.23;;;;;;;;;;5015125;28;20400;-81
2023/02/26 12:44:37;;;;;;;1.43;1.27;;;;;;;;;;5000282;28;20627;-81
2023/02/26 12:47:21;;;;;;;3.00;1.38;;;;;;;;;;5019096;28;20462;-81
2023/02/26 12:50:07;;;;;;;1.20;1.10;;;;;;;;;;5014735;28;20561;-80
2023/02/26 12:52:42;;;;;;;2.40;1.13;;;;;;;;;;5007556;28;20992;-83
2023/02/26 12:55:11;;;;;;;1.20;1.10;;;;;;;;;;4994678;28;20444;-84
2023/02/26 12:57:55;;;;;;;1.55;1.30;;;;;;;;;;5013925;28;20436;-85
2023/02/26 13:00:24;;;;;;;1.85;1.48;;;;;;;;;;5003201;28;20393;-81
2023/02/26 13:02:53;;;;;;;2.38;1.35;;;;;;;;;;5004513;28;20511;-80
2023/02/26 13:05:31;;;;;;;1.30;1.20;;;;;;;;;;5000325;28;20428;-84
2023/02/26 13:07:57;;;;;;;1.45;1.35;;;;;;;;;;5001221;28;20501;-84
2023/02/26 13:10:42;;;;;;;2.15;1.80;;;;;;;;;;5014013;28;20435;-83
2023/02/26 13:13:20;;;;;;;1.50;1.40;;;;;;;;;;5007142;28;20448;-88
2023/02/26 13:15:58;;;;;;;1.70;1.40;;;;;;;;;;5000856;28;20600;-84
2023/02/26 13:18:27;;;;;;;1.70;1.60;;;;;;;;;;4995526;28;20447;-83
2023/02/26 13:21:05;;;;;;;1.70;1.60;;;;;;;;;;5002048;28;20931;-84
2023/02/26 13:23:34;;;;;;;2.10;1.90;;;;;;;;;;5006852;28;20393;-82
2023/02/26 13:26:02;;;;;;;1.35;1.25;;;;;;;;;;5013955;28;20400;-86
2023/02/26 13:28:43;;;;;;;1.60;1.50;;;;;;;;;;5002371;28;20426;-86
2023/02/26 13:31:18;;;;;;;1.80;1.70;;;;;;;;;;4991477;28;20431;-83
2023/02/26 13:33:45;;;;;;;1.63;1.52;;;;;;;;;;5007080;28;20454;-83
2023/02/26 13:36:11;;;;;;;1.48;1.38;;;;;;;;;;5013548;28;20408;-85
2023/02/26 13:38:40;;;;;;;1.58;1.40;;;;;;;;;;5007473;28;20408;-84
2023/02/26 13:41:15;;;;;;;1.48;1.38;;;;;;;;;;5014849;28;20390;-85
2023/02/26 13:43:41;;;;;;;1.30;1.20;;;;;;;;;;5022171;28;20446;-82
2023/02/26 13:46:19;;;;;;;1.35;1.25;;;;;;;;;;5007908;28;20396;-82
2023/02/26 13:48:45;;;;;;;1.40;1.30;;;;;;;;;;5010811;28;20571;-86
2023/02/26 13:51:12;;;;;;;2.00;1.80;;;;;;;;;;4998618;28;20474;-82
2023/02/26 13:53:38;;;;;;;3.42;2.92;;;;;;;;;;5010848;28;20731;-86
2023/02/26 13:56:13;;;;;;;2.33;1.52;;;;;;;;;;5003372;28;20397;-86
2023/02/26 13:58:40;;;;;;;1.75;1.40;;;;;;;;;;4993598;28;20752;-87
2023/02/26 14:01:17;;;;;;;1.60;1.50;;;;;;;;;;5001429;28;20412;-89
2023/02/26 14:03:46;;;;;;;1.48;1.38;;;;;;;;;;5013477;28;20549;-87
2023/02/26 14:06:22;;;;;;;3.10;1.90;;;;;;;;;;5013723;28;20388;-85
2023/02/26 14:08:50;;;;;;;1.58;1.48;;;;;;;;;;5000002;28;20528;-85
2023/02/26 14:11:34;;;;;;;2.35;1.70;;;;;;;;;;4995229;28;20391;-85
2023/02/26 14:14:17;;;;;;;1.27;1.17;;;;;;;;;;4994965;28;20457;-84
2023/02/26 14:16:44;;;;;;;1.35;1.20;;;;;;;;;;4981305;28;20452;-85
2023/02/26 14:19:13;;;;;;;2.60;1.65;;;;;;;;;;4995296;28;20384;-84
2023/02/26 14:21:48;;;;;;;2.10;1.90;;;;;;;;;;4993259;28;20399;-83
2023/02/26 14:24:19;;;;;;;2.13;1.92;;;;;;;;;;5010107;28;21209;-82
2023/02/26 14:26:47;;;;;;;2.20;2.00;;;;;;;;;;5013115;28;20517;-82
2023/02/26 14:29:21;;;;;;;2.50;2.30;;;;;;;;;;5010031;28;20502;-83
2023/02/26 14:31:50;;;;;;;2.47;2.38;;;;;;;;;;5012819;28;20497;-84
2023/02/26 14:34:30;;;;;;;2.70;2.50;;;;;;;;;;5013036;28;20426;-82
2023/02/26 14:37:01;;;;;;;2.40;2.30;;;;;;;;;;5013568;28;20384;-82
2023/02/26 14:39:33;;;;;;;2.25;2.05;;;;;;;;;;5012880;28;20405;-82
2023/02/26 14:42:02;;;;;;;2.78;1.85;;;;;;;;;;5012981;28;20870;-81
2023/02/26 14:44:30;;;;;;;1.80;1.70;;;;;;;;;;4999234;28;20399;-82
2023/02/26 14:46:56;;;;;;;1.92;1.83;;;;;;;;;;4983132;28;20398;-85
2023/02/26 14:49:42;;;;;;;2.25;2.05;;;;;;;;;;4997752;28;20406;-86
2023/02/26 14:52:26;;;;;;;3.03;2.83;;;;;;;;;;5000297;28;20994;-84
2023/02/26 14:55:03;;;;;;;2.70;2.50;;;;;;;;;;5012638;28;20450;-84
2023/02/26 14:57:39;;;;;;;2.92;2.70;;;;;;;;;;4993486;28;20509;-85
2023/02/26 15:00:17;;;;;;;3.47;3.17;;;;;;;;;;4978966;28;20513;-85